sensor_id;sensor_type;location;lat;lon;timestamp;pressure;altitude;pressure_sealevel;temperature;humidity
50292;BME280;36190;54.980;73.388;2023-08-17T00:02:12;100335.34;;;17.47;74.56
50292;BME280;36190;54.980;73.388;2023-08-17T00:04:40;100337.81;;;17.49;74.56
50292;BME280;36190;54.980;73.388;2023-08-17T00:07:10;100340.91;;;17.52;74.34
50292;BME280;36190;54.980;73.388;2023-08-17T00:09:38;100334.06;;;17.56;74.13
50292;BME280;36190;54.980;73.388;2023-08-17T00:12:07;100333.84;;;17.58;73.99
50292;BME280;36190;54.980;73.388;2023-08-17T00:14:34;100328.00;;;17.61;73.92
50292;BME280;36190;54.980;73.388;2023-08-17T00:17:01;100321.56;;;17.62;73.98
50292;BME280;36190;54.980;73.388;2023-08-17T00:19:33;100328.84;;;17.62;74.13
50292;BME280;36190;54.980;73.388;2023-08-17T00:22:00;100332.56;;;17.60;74.10
50292;BME280;36190;54.980;73.388;2023-08-17T00:24:29;100327.16;;;17.60;74.26
50292;BME280;36190;54.980;73.388;2023-08-17T00:26:57;100335.25;;;17.60;74.11
50292;BME280;36190;54.980;73.388;2023-08-17T00:29:24;100339.41;;;17.63;74.30
50292;BME280;36190;54.980;73.388;2023-08-17T00:31:52;100335.25;;;17.60;74.47
50292;BME280;36190;54.980;73.388;2023-08-17T00:34:19;100350.19;;;17.63;74.45
50292;BME280;36190;54.980;73.388;2023-08-17T00:36:46;100346.25;;;17.66;74.37
50292;BME280;36190;54.980;73.388;2023-08-17T00:39:14;100347.69;;;17.68;74.43
50292;BME280;36190;54.980;73.388;2023-08-17T00:41:43;100354.53;;;17.71;74.22
50292;BME280;36190;54.980;73.388;2023-08-17T00:44:10;100357.81;;;17.73;74.24
50292;BME280;36190;54.980;73.388;2023-08-17T00:46:38;100355.50;;;17.77;74.08
50292;BME280;36190;54.980;73.388;2023-08-17T00:49:06;100348.88;;;17.79;73.82
50292;BME280;36190;54.980;73.388;2023-08-17T00:51:34;100349.69;;;17.80;73.67
50292;BME280;36190;54.980;73.388;2023-08-17T00:54:02;100355.91;;;17.80;73.45
50292;BME280;36190;54.980;73.388;2023-08-17T00:56:30;100349.69;;;17.80;73.35
50292;BME280;36190;54.980;73.388;2023-08-17T00:58:59;100362.97;;;17.81;73.37
50292;BME280;36190;54.980;73.388;2023-08-17T01:01:26;100360.88;;;17.83;73.26
50292;BME280;36190;54.980;73.388;2023-08-17T01:03:54;100370.41;;;17.86;73.38
50292;BME280;36190;54.980;73.388;2023-08-17T01:06:21;100366.06;;;17.85;73.65
50292;BME280;36190;54.980;73.388;2023-08-17T01:08:49;100361.47;;;17.85;73.78
50292;BME280;36190;54.980;73.388;2023-08-17T01:11:23;100357.75;;;17.86;73.96
50292;BME280;36190;54.980;73.388;2023-08-17T01:13:56;100355.06;;;17.86;73.87
50292;BME280;36190;54.980;73.388;2023-08-17T01:16:31;100349.66;;;17.86;73.92
50292;BME280;36190;54.980;73.388;2023-08-17T01:19:01;100340.91;;;17.84;73.85
50292;BME280;36190;54.980;73.388;2023-08-17T01:21:37;100346.13;;;17.86;74.13
50292;BME280;36190;54.980;73.388;2023-08-17T01:24:11;100351.50;;;17.86;74.11
50292;BME280;36190;54.980;73.388;2023-08-17T01:26:39;100352.09;;;17.88;74.07
50292;BME280;36190;54.980;73.388;2023-08-17T01:29:06;100344.84;;;17.89;74.10
50292;BME280;36190;54.980;73.388;2023-08-17T01:31:39;100345.66;;;17.89;73.93
50292;BME280;36190;54.980;73.388;2023-08-17T01:34:10;100341.31;;;17.88;73.84
50292;BME280;36190;54.980;73.388;2023-08-17T01:36:48;100358.09;;;17.97;73.71
50292;BME280;36190;54.980;73.388;2023-08-17T01:39:23;100341.72;;;17.92;73.66
50292;BME280;36190;54.980;73.388;2023-08-17T01:41:52;100351.25;;;17.94;73.75
50292;BME280;36190;54.980;73.388;2023-08-17T01:44:22;100360.34;;;18.00;74.06
50292;BME280;36190;54.980;73.388;2023-08-17T01:46:50;100361.19;;;18.00;74.18
50292;BME280;36190;54.980;73.388;2023-08-17T01:49:19;100358.25;;;18.02;74.50
50292;BME280;36190;54.980;73.388;2023-08-17T01:51:46;100359.50;;;18.06;74.67
50292;BME280;36190;54.980;73.388;2023-08-17T01:54:14;100366.28;;;18.16;74.79
50292;BME280;36190;54.980;73.388;2023-08-17T01:56:42;100369.75;;;18.23;75.11
50292;BME280;36190;54.980;73.388;2023-08-17T01:59:10;100350.78;;;18.30;75.07
50292;BME280;36190;54.980;73.388;2023-08-17T02:01:38;100348.06;;;18.36;75.08
50292;BME280;36190;54.980;73.388;2023-08-17T02:04:06;100360.91;;;18.41;74.74
50292;BME280;36190;54.980;73.388;2023-08-17T02:06:34;100367.28;;;18.47;74.71
50292;BME280;36190;54.980;73.388;2023-08-17T02:09:01;100360.53;;;18.56;74.64
50292;BME280;36190;54.980;73.388;2023-08-17T02:11:29;100375.97;;;18.74;74.37
50292;BME280;36190;54.980;73.388;2023-08-17T02:13:57;100383.03;;;18.94;73.88
50292;BME280;36190;54.980;73.388;2023-08-17T02:16:25;100386.31;;;19.21;73.44
50292;BME280;36190;54.980;73.388;2023-08-17T02:18:52;100391.47;;;19.42;72.79
50292;BME280;36190;54.980;73.388;2023-08-17T02:21:20;100402.66;;;19.45;72.38
50292;BME280;36190;54.980;73.388;2023-08-17T02:23:47;100392.94;;;19.26;72.15
50292;BME280;36190;54.980;73.388;2023-08-17T02:26:15;100391.22;;;18.87;72.66
50292;BME280;36190;54.980;73.388;2023-08-17T02:28:42;100377.41;;;18.51;73.44
50292;BME280;36190;54.980;73.388;2023-08-17T02:31:11;100373.84;;;18.32;74.27
50292;BME280;36190;54.980;73.388;2023-08-17T02:33:39;100353.78;;;18.21;74.71
50292;BME280;36190;54.980;73.388;2023-08-17T02:36:06;100371.03;;;18.20;75.15
50292;BME280;36190;54.980;73.388;2023-08-17T02:38:34;100376.41;;;18.20;75.47
50292;BME280;36190;54.980;73.388;2023-08-17T02:41:01;100374.31;;;18.22;75.73
50292;BME280;36190;54.980;73.388;2023-08-17T02:43:29;100377.41;;;18.26;75.93
50292;BME280;36190;54.980;73.388;2023-08-17T02:45:56;100362.44;;;18.30;76.04
50292;BME280;36190;54.980;73.388;2023-08-17T02:48:26;100363.22;;;18.37;76.01
50292;BME280;36190;54.980;73.388;2023-08-17T02:50:54;100367.66;;;18.50;75.87
50292;BME280;36190;54.980;73.388;2023-08-17T02:53:21;100367.75;;;18.62;75.80
50292;BME280;36190;54.980;73.388;2023-08-17T02:55:49;100371.38;;;18.75;75.43
50292;BME280;36190;54.980;73.388;2023-08-17T02:58:16;100379.94;;;18.90;75.14
50292;BME280;36190;54.980;73.388;2023-08-17T03:00:44;100380.44;;;19.06;74.76
50292;BME280;36190;54.980;73.388;2023-08-17T03:03:11;100377.59;;;19.19;74.75
50292;BME280;36190;54.980;73.388;2023-08-17T03:05:40;100373.75;;;19.27;74.70
50292;BME280;36190;54.980;73.388;2023-08-17T03:08:07;100366.97;;;19.36;74.87
50292;BME280;36190;54.980;73.388;2023-08-17T03:10:36;100368.81;;;19.55;74.72
50292;BME280;36190;54.980;73.388;2023-08-17T03:13:04;100375.25;;;19.72;74.41
50292;BME280;36190;54.980;73.388;2023-08-17T03:15:31;100372.66;;;19.96;74.28
50292;BME280;36190;54.980;73.388;2023-08-17T03:17:59;100370.47;;;20.17;73.83
50292;BME280;36190;54.980;73.388;2023-08-17T03:20:26;100370.94;;;20.38;73.48
50292;BME280;36190;54.980;73.388;2023-08-17T03:22:55;100369.09;;;20.50;73.09
50292;BME280;36190;54.980;73.388;2023-08-17T03:25:22;100371.19;;;20.72;72.54
50292;BME280;36190;54.980;73.388;2023-08-17T03:27:50;100367.91;;;20.94;72.31
50292;BME280;36190;54.980;73.388;2023-08-17T03:30:17;100367.75;;;21.12;71.56
50292;BME280;36190;54.980;73.388;2023-08-17T03:32:48;100373.13;;;21.24;71.46
50292;BME280;36190;54.980;73.388;2023-08-17T03:35:15;100375.41;;;21.15;71.36
50292;BME280;36190;54.980;73.388;2023-08-17T03:37:43;100374.16;;;20.94;71.96
50292;BME280;36190;54.980;73.388;2023-08-17T03:40:12;100370.25;;;20.66;72.91
50292;BME280;36190;54.980;73.388;2023-08-17T03:42:40;100378.38;;;20.42;73.68
50292;BME280;36190;54.980;73.388;2023-08-17T03:45:09;100371.91;;;20.31;74.16
50292;BME280;36190;54.980;73.388;2023-08-17T03:47:36;100372.94;;;20.18;74.07
50292;BME280;36190;54.980;73.388;2023-08-17T03:50:04;100381.16;;;20.12;73.84
50292;BME280;36190;54.980;73.388;2023-08-17T03:52:32;100374.25;;;20.16;73.28
50292;BME280;36190;54.980;73.388;2023-08-17T03:54:59;100375.41;;;20.20;72.82
50292;BME280;36190;54.980;73.388;2023-08-17T03:57:28;100374.69;;;20.13;72.61
50292;BME280;36190;54.980;73.388;2023-08-17T03:59:56;100381.75;;;20.14;72.40
50292;BME280;36190;54.980;73.388;2023-08-17T04:02:23;100372.56;;;20.15;72.34
50292;BME280;36190;54.980;73.388;2023-08-17T04:04:51;100372.13;;;20.18;72.05
50292;BME280;36190;54.980;73.388;2023-08-17T04:07:21;100372.34;;;20.28;71.81
50292;BME280;36190;54.980;73.388;2023-08-17T04:09:49;100377.22;;;20.38;71.74
50292;BME280;36190;54.980;73.388;2023-08-17T04:12:16;100371.78;;;20.50;71.38
50292;BME280;36190;54.980;73.388;2023-08-17T04:14:46;100376.75;;;20.65;70.91
50292;BME280;36190;54.980;73.388;2023-08-17T04:17:13;100370.59;;;20.82;70.68
50292;BME280;36190;54.980;73.388;2023-08-17T04:19:41;100379.94;;;20.98;70.30
50292;BME280;36190;54.980;73.388;2023-08-17T04:22:08;100378.00;;;21.10;69.67
50292;BME280;36190;54.980;73.388;2023-08-17T04:24:36;100376.81;;;21.30;69.77
50292;BME280;36190;54.980;73.388;2023-08-17T04:27:03;100371.09;;;21.43;68.94
50292;BME280;36190;54.980;73.388;2023-08-17T04:29:31;100374.47;;;21.51;69.01
50292;BME280;36190;54.980;73.388;2023-08-17T04:32:00;100376.69;;;21.54;68.79
50292;BME280;36190;54.980;73.388;2023-08-17T04:34:28;100382.81;;;21.61;68.82
50292;BME280;36190;54.980;73.388;2023-08-17T04:36:55;100375.47;;;21.74;68.37
50292;BME280;36190;54.980;73.388;2023-08-17T04:39:23;100386.22;;;21.97;68.19
50292;BME280;36190;54.980;73.388;2023-08-17T04:41:50;100381.63;;;22.15;67.65
50292;BME280;36190;54.980;73.388;2023-08-17T04:44:18;100381.06;;;22.30;67.39
50292;BME280;36190;54.980;73.388;2023-08-17T04:46:45;100374.22;;;22.45;67.07
50292;BME280;36190;54.980;73.388;2023-08-17T04:49:14;100383.22;;;22.45;66.65
50292;BME280;36190;54.980;73.388;2023-08-17T04:51:41;100374.97;;;22.40;66.41
50292;BME280;36190;54.980;73.388;2023-08-17T04:54:09;100382.28;;;22.39;66.29
50292;BME280;36190;54.980;73.388;2023-08-17T04:56:36;100377.16;;;22.43;66.65
50292;BME280;36190;54.980;73.388;2023-08-17T04:59:04;100377.84;;;22.50;66.56
50292;BME280;36190;54.980;73.388;2023-08-17T05:01:31;100375.69;;;22.70;66.19
50292;BME280;36190;54.980;73.388;2023-08-17T05:03:59;100388.88;;;22.78;65.92
50292;BME280;36190;54.980;73.388;2023-08-17T05:06:29;100377.09;;;22.72;65.77
50292;BME280;36190;54.980;73.388;2023-08-17T05:08:57;100372.09;;;22.64;65.70
50292;BME280;36190;54.980;73.388;2023-08-17T05:11:25;100376.53;;;22.70;65.54
50292;BME280;36190;54.980;73.388;2023-08-17T05:13:52;100380.94;;;22.76;65.81
50292;BME280;36190;54.980;73.388;2023-08-17T05:16:20;100375.22;;;22.73;65.57
50292;BME280;36190;54.980;73.388;2023-08-17T05:18:48;100377.00;;;22.67;66.23
50292;BME280;36190;54.980;73.388;2023-08-17T05:21:15;100378.03;;;22.61;66.12
50292;BME280;36190;54.980;73.388;2023-08-17T05:23:44;100384.47;;;22.55;66.33
50292;BME280;36190;54.980;73.388;2023-08-17T05:26:12;100383.69;;;22.42;66.92
50292;BME280;36190;54.980;73.388;2023-08-17T05:28:39;100379.97;;;22.31;67.07
50292;BME280;36190;54.980;73.388;2023-08-17T05:31:08;100384.09;;;22.34;67.75
50292;BME280;36190;54.980;73.388;2023-08-17T05:33:36;100382.59;;;22.43;67.63
50292;BME280;36190;54.980;73.388;2023-08-17T05:36:06;100384.47;;;22.55;67.72
50292;BME280;36190;54.980;73.388;2023-08-17T05:38:34;100392.00;;;22.70;67.39
50292;BME280;36190;54.980;73.388;2023-08-17T05:41:03;100387.72;;;22.74;67.09
50292;BME280;36190;54.980;73.388;2023-08-17T05:43:30;100389.06;;;22.71;67.14
50292;BME280;36190;54.980;73.388;2023-08-17T05:45:58;100389.28;;;22.70;67.43
50292;BME280;36190;54.980;73.388;2023-08-17T05:48:26;100398.44;;;22.63;67.44
50292;BME280;36190;54.980;73.388;2023-08-17T05:50:55;100403.22;;;22.56;67.75
50292;BME280;36190;54.980;73.388;2023-08-17T05:53:23;100401.34;;;22.57;67.88
50292;BME280;36190;54.980;73.388;2023-08-17T05:55:50;100394.81;;;22.58;67.76
50292;BME280;36190;54.980;73.388;2023-08-17T05:58:19;100404.94;;;22.62;68.20
50292;BME280;36190;54.980;73.388;2023-08-17T06:00:47;100391.19;;;22.69;68.22
50292;BME280;36190;54.980;73.388;2023-08-17T06:03:14;100396.34;;;22.88;67.94
50292;BME280;36190;54.980;73.388;2023-08-17T06:05:42;100399.53;;;23.02;67.92
50292;BME280;36190;54.980;73.388;2023-08-17T06:08:09;100401.25;;;23.08;67.33
50292;BME280;36190;54.980;73.388;2023-08-17T06:10:36;100394.22;;;23.12;66.44
50292;BME280;36190;54.980;73.388;2023-08-17T06:13:04;100388.53;;;23.36;66.10
50292;BME280;36190;54.980;73.388;2023-08-17T06:15:33;100402.56;;;23.72;65.07
50292;BME280;36190;54.980;73.388;2023-08-17T06:18:00;100400.41;;;24.02;64.31
50292;BME280;36190;54.980;73.388;2023-08-17T06:20:28;100407.13;;;24.16;63.98
50292;BME280;36190;54.980;73.388;2023-08-17T06:22:55;100407.06;;;24.11;63.59
50292;BME280;36190;54.980;73.388;2023-08-17T06:25:23;100399.50;;;24.19;63.23
50292;BME280;36190;54.980;73.388;2023-08-17T06:27:51;100396.38;;;24.37;63.00
50292;BME280;36190;54.980;73.388;2023-08-17T06:30:19;100395.69;;;24.57;62.34
50292;BME280;36190;54.980;73.388;2023-08-17T06:32:50;100408.03;;;24.65;62.48
50292;BME280;36190;54.980;73.388;2023-08-17T06:35:18;100408.03;;;24.65;62.73
50292;BME280;36190;54.980;73.388;2023-08-17T06:37:45;100399.84;;;24.65;62.36
50292;BME280;36190;54.980;73.388;2023-08-17T06:40:13;100403.09;;;24.62;63.08
50292;BME280;36190;54.980;73.388;2023-08-17T06:42:40;100409.50;;;24.45;62.87
50292;BME280;36190;54.980;73.388;2023-08-17T06:45:08;100406.22;;;24.43;63.17
50292;BME280;36190;54.980;73.388;2023-08-17T06:47:36;100413.41;;;24.55;63.00
50292;BME280;36190;54.980;73.388;2023-08-17T06:50:05;100402.47;;;24.55;62.71
50292;BME280;36190;54.980;73.388;2023-08-17T06:52:33;100421.09;;;24.63;62.81
50292;BME280;36190;54.980;73.388;2023-08-17T06:55:01;100421.72;;;24.76;62.36
50292;BME280;36190;54.980;73.388;2023-08-17T06:57:28;100417.88;;;24.71;61.96
50292;BME280;36190;54.980;73.388;2023-08-17T06:59:56;100424.34;;;24.60;62.06
50292;BME280;36190;54.980;73.388;2023-08-17T07:02:23;100430.16;;;24.36;62.54
50292;BME280;36190;54.980;73.388;2023-08-17T07:04:51;100426.22;;;24.22;62.90
50292;BME280;36190;54.980;73.388;2023-08-17T07:07:20;100432.19;;;24.19;62.88
50292;BME280;36190;54.980;73.388;2023-08-17T07:09:47;100443.13;;;24.24;62.55
50292;BME280;36190;54.980;73.388;2023-08-17T07:12:15;100433.31;;;24.23;62.11
50292;BME280;36190;54.980;73.388;2023-08-17T07:14:42;100434.94;;;24.24;62.20
50292;BME280;36190;54.980;73.388;2023-08-17T07:17:10;100436.16;;;24.38;61.88
50292;BME280;36190;54.980;73.388;2023-08-17T07:19:37;100433.06;;;24.57;61.33
50292;BME280;36190;54.980;73.388;2023-08-17T07:22:05;100445.16;;;24.71;60.65
50292;BME280;36190;54.980;73.388;2023-08-17T07:24:34;100444.09;;;24.78;60.30
50292;BME280;36190;54.980;73.388;2023-08-17T07:27:01;100439.28;;;24.85;59.86
50292;BME280;36190;54.980;73.388;2023-08-17T07:29:29;100440.97;;;24.91;59.28
50292;BME280;36190;54.980;73.388;2023-08-17T07:31:56;100437.19;;;24.97;59.26
50292;BME280;36190;54.980;73.388;2023-08-17T07:34:27;100444.28;;;24.98;58.82
50292;BME280;36190;54.980;73.388;2023-08-17T07:36:54;100447.41;;;24.80;58.99
50292;BME280;36190;54.980;73.388;2023-08-17T07:39:22;100443.97;;;24.57;59.62
50292;BME280;36190;54.980;73.388;2023-08-17T07:41:51;100433.56;;;24.54;59.45
50292;BME280;36190;54.980;73.388;2023-08-17T07:44:18;100438.53;;;24.57;59.32
50292;BME280;36190;54.980;73.388;2023-08-17T07:46:46;100445.91;;;24.62;58.80
50292;BME280;36190;54.980;73.388;2023-08-17T07:49:13;100449.38;;;24.52;58.03
50292;BME280;36190;54.980;73.388;2023-08-17T07:51:41;100438.13;;;24.43;57.79
50292;BME280;36190;54.980;73.388;2023-08-17T07:54:08;100428.66;;;24.51;57.55
50292;BME280;36190;54.980;73.388;2023-08-17T07:56:35;100438.00;;;24.60;57.33
50292;BME280;36190;54.980;73.388;2023-08-17T07:59:05;100427.44;;;24.74;57.43
50292;BME280;36190;54.980;73.388;2023-08-17T08:01:32;100429.03;;;25.13;56.47
50292;BME280;36190;54.980;73.388;2023-08-17T08:04:00;100427.00;;;25.46;55.89
50292;BME280;36190;54.980;73.388;2023-08-17T08:06:27;100432.00;;;25.60;55.57
50292;BME280;36190;54.980;73.388;2023-08-17T08:08:55;100435.19;;;25.46;55.20
50292;BME280;36190;54.980;73.388;2023-08-17T08:11:22;100431.72;;;24.97;55.71
50292;BME280;36190;54.980;73.388;2023-08-17T08:13:50;100437.53;;;24.74;55.69
50292;BME280;36190;54.980;73.388;2023-08-17T08:16:19;100430.72;;;24.76;55.36
50292;BME280;36190;54.980;73.388;2023-08-17T08:18:46;100436.00;;;24.83;54.62
50292;BME280;36190;54.980;73.388;2023-08-17T08:21:13;100428.97;;;24.92;53.94
50292;BME280;36190;54.980;73.388;2023-08-17T08:23:41;100424.13;;;25.10;53.32
50292;BME280;36190;54.980;73.388;2023-08-17T08:26:08;100425.34;;;25.35;52.63
50292;BME280;36190;54.980;73.388;2023-08-17T08:28:36;100434.19;;;25.58;53.00
50292;BME280;36190;54.980;73.388;2023-08-17T08:31:03;100432.09;;;26.01;52.75
50292;BME280;36190;54.980;73.388;2023-08-17T08:33:32;100437.06;;;26.35;51.64
50292;BME280;36190;54.980;73.388;2023-08-17T08:36:00;100435.97;;;26.47;51.48
50292;BME280;36190;54.980;73.388;2023-08-17T08:38:27;100437.06;;;26.41;51.21
50292;BME280;36190;54.980;73.388;2023-08-17T08:40:55;100454.56;;;26.55;50.54
50292;BME280;36190;54.980;73.388;2023-08-17T08:43:23;100448.03;;;26.46;49.78
50292;BME280;36190;54.980;73.388;2023-08-17T08:45:51;100439.00;;;26.50;49.51
50292;BME280;36190;54.980;73.388;2023-08-17T08:48:19;100435.69;;;26.74;49.06
50292;BME280;36190;54.980;73.388;2023-08-17T08:50:50;100442.25;;;26.73;48.57
50292;BME280;36190;54.980;73.388;2023-08-17T08:53:27;100432.13;;;26.27;49.13
50292;BME280;36190;54.980;73.388;2023-08-17T08:55:57;100445.72;;;25.75;49.98
50292;BME280;36190;54.980;73.388;2023-08-17T08:58:25;100441.22;;;25.48;50.59
50292;BME280;36190;54.980;73.388;2023-08-17T09:00:53;100437.19;;;25.66;49.94
50292;BME280;36190;54.980;73.388;2023-08-17T09:03:20;100441.94;;;26.02;49.05
50292;BME280;36190;54.980;73.388;2023-08-17T09:05:50;100443.38;;;26.26;47.60
50292;BME280;36190;54.980;73.388;2023-08-17T09:08:21;100449.66;;;26.36;46.96
50292;BME280;36190;54.980;73.388;2023-08-17T09:10:49;100443.06;;;26.43;46.55
50292;BME280;36190;54.980;73.388;2023-08-17T09:13:17;100445.28;;;26.56;45.69
50292;BME280;36190;54.980;73.388;2023-08-17T09:15:44;100441.41;;;26.88;45.33
50292;BME280;36190;54.980;73.388;2023-08-17T09:18:12;100445.19;;;27.13;44.15
50292;BME280;36190;54.980;73.388;2023-08-17T09:20:41;100445.09;;;27.34;43.34
50292;BME280;36190;54.980;73.388;2023-08-17T09:23:12;100442.28;;;27.50;42.10
50292;BME280;36190;54.980;73.388;2023-08-17T09:25:42;100439.25;;;27.62;41.91
50292;BME280;36190;54.980;73.388;2023-08-17T09:28:11;100453.38;;;27.84;40.91
50292;BME280;36190;54.980;73.388;2023-08-17T09:30:50;100452.00;;;27.87;40.53
50292;BME280;36190;54.980;73.388;2023-08-17T09:33:20;100444.19;;;28.05;40.30
50292;BME280;36190;54.980;73.388;2023-08-17T09:35:48;100457.88;;;28.10;39.82
50292;BME280;36190;54.980;73.388;2023-08-17T09:38:17;100449.16;;;28.03;39.77
50292;BME280;36190;54.980;73.388;2023-08-17T09:40:45;100462.81;;;28.08;40.05
50292;BME280;36190;54.980;73.388;2023-08-17T09:43:14;100452.72;;;28.03;39.35
50292;BME280;36190;54.980;73.388;2023-08-17T09:45:43;100456.25;;;28.09;38.44
50292;BME280;36190;54.980;73.388;2023-08-17T09:48:15;100445.06;;;28.00;37.49
50292;BME280;36190;54.980;73.388;2023-08-17T09:50:43;100456.72;;;28.21;38.05
50292;BME280;36190;54.980;73.388;2023-08-17T09:53:12;100456.13;;;28.59;38.04
50292;BME280;36190;54.980;73.388;2023-08-17T09:55:43;100448.97;;;28.93;38.04
50292;BME280;36190;54.980;73.388;2023-08-17T09:58:11;100452.97;;;29.06;38.12
50292;BME280;36190;54.980;73.388;2023-08-17T10:00:43;100462.59;;;29.03;38.65
50292;BME280;36190;54.980;73.388;2023-08-17T10:03:11;100452.50;;;29.23;38.68
50292;BME280;36190;54.980;73.388;2023-08-17T10:05:44;100469.31;;;29.41;37.81
50292;BME280;36190;54.980;73.388;2023-08-17T10:08:13;100460.53;;;29.38;37.25
50292;BME280;36190;54.980;73.388;2023-08-17T10:10:45;100459.25;;;29.31;36.46
50292;BME280;36190;54.980;73.388;2023-08-17T10:13:18;100464.81;;;29.26;36.33
50292;BME280;36190;54.980;73.388;2023-08-17T10:15:55;100458.22;;;29.51;36.03
50292;BME280;36190;54.980;73.388;2023-08-17T10:18:30;100467.44;;;29.99;35.72
50292;BME280;36190;54.980;73.388;2023-08-17T10:21:01;100451.44;;;30.39;35.43
50292;BME280;36190;54.980;73.388;2023-08-17T10:23:31;100455.63;;;30.84;35.00
50292;BME280;36190;54.980;73.388;2023-08-17T10:26:01;100451.66;;;31.18;34.04
50292;BME280;36190;54.980;73.388;2023-08-17T10:28:31;100457.50;;;31.03;33.55
50292;BME280;36190;54.980;73.388;2023-08-17T10:30:59;100463.28;;;30.87;33.66
50292;BME280;36190;54.980;73.388;2023-08-17T10:33:27;100464.72;;;30.98;33.82
50292;BME280;36190;54.980;73.388;2023-08-17T10:35:56;100460.84;;;31.13;33.62
50292;BME280;36190;54.980;73.388;2023-08-17T10:38:24;100460.94;;;31.50;33.47
50292;BME280;36190;54.980;73.388;2023-08-17T10:41:11;100464.47;;;31.93;32.90
50292;BME280;36190;54.980;73.388;2023-08-17T10:43:56;100461.81;;;31.88;32.15
50292;BME280;36190;54.980;73.388;2023-08-17T10:46:33;100476.75;;;31.73;32.41
50292;BME280;36190;54.980;73.388;2023-08-17T10:49:03;100473.06;;;31.77;32.47
50292;BME280;36190;54.980;73.388;2023-08-17T10:51:32;100482.28;;;32.32;32.05
50292;BME280;36190;54.980;73.388;2023-08-17T10:54:02;100476.09;;;32.81;31.42
50292;BME280;36190;54.980;73.388;2023-08-17T10:56:34;100482.84;;;32.98;30.86
50292;BME280;36190;54.980;73.388;2023-08-17T10:59:02;100481.66;;;32.90;30.87
50292;BME280;36190;54.980;73.388;2023-08-17T11:01:36;100486.06;;;32.91;30.67
50292;BME280;36190;54.980;73.388;2023-08-17T11:04:10;100486.16;;;32.77;30.98
50292;BME280;36190;54.980;73.388;2023-08-17T11:06:38;100483.06;;;33.10;30.62
50292;BME280;36190;54.980;73.388;2023-08-17T11:09:07;100494.59;;;33.53;30.33
50292;BME280;36190;54.980;73.388;2023-08-17T11:11:37;100494.59;;;33.53;29.52
50292;BME280;36190;54.980;73.388;2023-08-17T11:14:04;100495.00;;;33.28;29.86
50292;BME280;36190;54.980;73.388;2023-08-17T11:16:32;100490.22;;;33.11;29.88
50292;BME280;36190;54.980;73.388;2023-08-17T11:19:00;100494.78;;;33.07;29.91
50292;BME280;36190;54.980;73.388;2023-08-17T11:21:28;100490.59;;;33.18;29.79
50292;BME280;36190;54.980;73.388;2023-08-17T11:23:56;100499.75;;;33.45;29.80
50292;BME280;36190;54.980;73.388;2023-08-17T11:26:27;100494.81;;;33.65;29.38
50292;BME280;36190;54.980;73.388;2023-08-17T11:28:56;100501.16;;;33.74;28.86
50292;BME280;36190;54.980;73.388;2023-08-17T11:31:25;100490.09;;;33.74;28.97
50292;BME280;36190;54.980;73.388;2023-08-17T11:33:53;100505.06;;;33.91;28.53
50292;BME280;36190;54.980;73.388;2023-08-17T11:36:21;100500.06;;;34.02;28.70
50292;BME280;36190;54.980;73.388;2023-08-17T11:38:50;100495.00;;;34.13;28.22
50292;BME280;36190;54.980;73.388;2023-08-17T11:41:18;100499.88;;;34.16;28.37
50292;BME280;36190;54.980;73.388;2023-08-17T11:43:49;100502.47;;;34.39;28.26
50292;BME280;36190;54.980;73.388;2023-08-17T11:46:19;100500.13;;;34.76;27.56
50292;BME280;36190;54.980;73.388;2023-08-17T11:48:49;100499.41;;;34.97;27.38
50292;BME280;36190;54.980;73.388;2023-08-17T11:51:28;100504.63;;;35.37;27.04
50292;BME280;36190;54.980;73.388;2023-08-17T11:53:59;100511.38;;;35.58;26.33
50292;BME280;36190;54.980;73.388;2023-08-17T11:56:29;100513.72;;;35.77;26.69
50292;BME280;36190;54.980;73.388;2023-08-17T11:58:57;100516.81;;;35.97;26.11
50292;BME280;36190;54.980;73.388;2023-08-17T12:01:26;100508.50;;;36.18;25.76
50292;BME280;36190;54.980;73.388;2023-08-17T12:03:56;100510.19;;;36.31;26.01
50292;BME280;36190;54.980;73.388;2023-08-17T12:06:23;100506.13;;;36.29;25.77
50292;BME280;36190;54.980;73.388;2023-08-17T12:08:51;100504.06;;;36.38;25.91
50292;BME280;36190;54.980;73.388;2023-08-17T12:11:18;100508.69;;;36.68;25.62
50292;BME280;36190;54.980;73.388;2023-08-17T12:13:49;100508.09;;;36.74;24.85
50292;BME280;36190;54.980;73.388;2023-08-17T12:16:18;100515.50;;;36.70;25.20
50292;BME280;36190;54.980;73.388;2023-08-17T12:18:49;100515.75;;;36.44;25.31
50292;BME280;36190;54.980;73.388;2023-08-17T12:21:19;100507.66;;;36.39;25.31
50292;BME280;36190;54.980;73.388;2023-08-17T12:23:48;100514.47;;;36.41;25.31
50292;BME280;36190;54.980;73.388;2023-08-17T12:26:18;100514.06;;;36.52;25.09
50292;BME280;36190;54.980;73.388;2023-08-17T12:28:46;100524.22;;;36.81;25.14
50292;BME280;36190;54.980;73.388;2023-08-17T12:31:13;100521.41;;;36.69;24.87
50292;BME280;36190;54.980;73.388;2023-08-17T12:33:41;100513.56;;;36.50;25.05
50292;BME280;36190;54.980;73.388;2023-08-17T12:36:10;100513.81;;;36.44;24.71
50292;BME280;36190;54.980;73.388;2023-08-17T12:38:37;100527.63;;;36.32;25.15
50292;BME280;36190;54.980;73.388;2023-08-17T12:41:10;100523.28;;;36.43;25.46
50292;BME280;36190;54.980;73.388;2023-08-17T12:43:37;100529.13;;;35.87;25.27
50292;BME280;36190;54.980;73.388;2023-08-17T12:46:05;100527.72;;;36.02;25.47
50292;BME280;36190;54.980;73.388;2023-08-17T12:48:32;100521.16;;;36.28;24.88